createdAt,value
2018-07-26T20:58:00.598Z,49.37
2018-07-26T20:59:00.582Z,49.46
2018-07-26T21:00:00.566Z,49.37
2018-07-26T21:01:00.550Z,48.97
2018-07-26T21:04:00.860Z,49.75
2018-07-26T21:05:00.843Z,49.15
2018-07-26T21:06:00.843Z,48.85
2018-07-26T21:07:00.848Z,49.34
2018-07-26T21:08:00.813Z,49.54
2018-07-26T21:09:00.792Z,49.34
2018-07-26T21:10:00.767Z,49.63
2018-07-26T21:11:00.751Z,48.85
2018-07-26T21:12:00.737Z,48.76
2018-07-26T21:13:00.722Z,49.44
2018-07-26T21:14:00.708Z,48.66
2018-07-26T21:15:00.696Z,48.66
2018-07-26T21:16:00.680Z,48.95
2018-07-26T21:17:00.667Z,48.85
2018-07-26T21:18:00.660Z,48.66
2018-07-26T21:19:00.640Z,48.95
2018-07-26T21:20:00.627Z,48.57
2018-07-26T21:21:00.614Z,48.57
2018-07-26T21:22:00.600Z,48.57
2018-07-26T21:23:00.585Z,47.79
2018-07-26T21:24:00.607Z,47.67
2018-07-26T21:25:00.558Z,47.77
2018-07-26T21:26:00.618Z,47.89
2018-07-26T21:27:00.532Z,47.60
2018-07-26T21:28:00.519Z,47.67
2018-07-26T21:29:00.507Z,46.62
2018-07-26T21:30:00.492Z,47.02
2018-07-26T21:31:00.479Z,46.89
2018-07-26T21:32:00.481Z,46.80
2018-07-26T21:33:00.452Z,46.80
2018-07-26T21:34:00.440Z,46.60
2018-07-26T21:35:00.425Z,46.51
2018-07-26T21:36:00.413Z,46.02
2018-07-26T21:37:00.400Z,46.31
2018-07-26T21:38:00.386Z,46.12
2018-07-26T21:39:00.373Z,46.12
2018-07-26T21:40:00.360Z,45.64
2018-07-26T21:41:00.348Z,46.12
2018-07-26T21:42:00.332Z,46.12
2018-07-26T21:43:00.320Z,46.41
2018-07-26T21:44:00.308Z,45.15
2018-07-26T21:45:00.294Z,45.64
2018-07-26T21:46:00.281Z,45.34
2018-07-26T21:47:00.268Z,45.32
2018-07-26T21:48:00.254Z,45.44
2018-07-26T21:49:00.241Z,44.96
2018-07-26T21:50:00.227Z,45.42
2018-07-26T21:51:00.213Z,46.22
2018-07-26T21:52:00.203Z,45.03
2018-07-26T21:53:00.187Z,45.34
2018-07-26T21:54:00.174Z,45.25
2018-07-26T21:55:00.161Z,45.25
2018-07-26T21:56:00.147Z,45.32
2018-07-26T21:57:00.135Z,45.42
2018-07-26T21:58:00.123Z,45.32
2018-07-26T21:59:00.106Z,45.32
2018-07-26T22:00:00.096Z,45.22
2018-07-26T22:01:00.118Z,44.74
2018-07-26T22:02:00.066Z,44.74
2018-07-26T22:03:00.054Z,45.03
2018-07-26T22:04:00.042Z,44.74
2018-07-26T22:05:00.027Z,45.32
2018-07-26T22:06:00.014Z,45.13
2018-07-26T22:07:00.001Z,44.84
2018-07-26T22:07:59.986Z,44.84
2018-07-26T22:08:59.972Z,44.64
2018-07-26T22:09:59.957Z,44.26
2018-07-26T22:10:59.945Z,45.03
2018-07-26T22:11:59.932Z,44.74
2018-07-26T22:12:59.918Z,45.03
2018-07-26T22:13:59.905Z,45.03
2018-07-26T22:14:59.896Z,45.22
2018-07-26T22:15:59.929Z,45.32
2018-07-26T22:16:59.863Z,45.32
2018-07-26T22:17:59.851Z,45.22
2018-07-26T22:18:59.838Z,45.20
2018-07-26T22:19:59.824Z,45.88
2018-07-26T22:20:59.809Z,46.08
2018-07-26T22:21:59.813Z,46.08
2018-07-26T22:22:59.784Z,45.98
2018-07-26T22:23:59.771Z,45.88
2018-07-26T22:24:59.756Z,46.08
2018-07-26T22:25:59.742Z,46.36
2018-07-26T22:26:59.731Z,46.36
2018-07-26T22:27:59.717Z,46.94
2018-07-26T22:28:59.716Z,46.66
2018-07-26T22:29:59.707Z,46.94
2018-07-26T22:30:59.676Z,47.62
2018-07-26T22:31:59.662Z,47.62
2018-07-26T22:32:59.647Z,47.62
2018-07-26T22:33:59.634Z,47.72
2018-07-26T22:34:59.621Z,47.79
2018-07-26T22:35:59.607Z,47.62
2018-07-26T22:36:59.594Z,48.01
2018-07-26T22:37:59.600Z,47.89
2018-07-26T22:38:59.566Z,48.08
2018-07-26T22:39:59.552Z,48.01
2018-07-26T22:40:59.537Z,48.59
2018-07-26T22:41:59.524Z,48.49
2018-07-26T22:42:59.511Z,48.57
2018-07-26T22:43:59.496Z,48.66
2018-07-26T22:44:59.482Z,48.66
2018-07-26T22:45:59.470Z,48.76
2018-07-26T22:46:59.455Z,48.57
2018-07-26T22:47:59.442Z,48.76
2018-07-26T22:48:59.426Z,48.66
2018-07-26T22:49:59.413Z,49.15
2018-07-26T22:50:59.401Z,49.34
2018-07-26T22:51:59.386Z,49.54
2018-07-26T22:52:59.371Z,49.15
2018-07-26T22:53:59.359Z,49.34
2018-07-26T22:54:59.344Z,49.44
2018-07-26T22:55:59.330Z,49.15
2018-07-26T22:56:59.317Z,49.63
2018-07-26T22:57:59.302Z,49.92
2018-07-26T22:58:59.304Z,50.21
2018-07-26T22:59:59.274Z,49.82
2018-07-26T23:00:59.259Z,50.21
2018-07-26T23:01:59.247Z,50.12
2018-07-26T23:02:59.235Z,50.50
2018-07-26T23:03:59.219Z,50.40
2018-07-26T23:04:59.205Z,50.60
2018-07-26T23:05:59.191Z,50.98
2018-07-26T23:06:59.177Z,51.18
2018-07-26T23:07:59.164Z,51.28
2018-07-26T23:08:59.149Z,50.98
2018-07-26T23:09:59.135Z,51.47
2018-07-26T23:10:59.123Z,51.95
2018-07-26T23:11:59.113Z,51.95
2018-07-26T23:12:59.094Z,51.86
2018-07-26T23:13:59.079Z,52.34
2018-07-26T23:14:59.066Z,52.44
2018-07-26T23:15:59.053Z,52.44
2018-07-26T23:16:59.037Z,52.82
2018-07-26T23:17:59.025Z,53.02
2018-07-26T23:18:59.009Z,53.09
2018-07-26T23:19:59.001Z,53.11
2018-07-26T23:20:58.982Z,53.11
2018-07-26T23:21:58.967Z,53.21
2018-07-26T23:22:58.954Z,53.11
2018-07-26T23:23:58.940Z,53.50
2018-07-26T23:24:58.924Z,53.50
2018-07-26T23:25:58.911Z,53.69
2018-07-26T23:26:58.897Z,54.15
2018-07-26T23:27:58.884Z,54.44
2018-07-26T23:28:58.868Z,54.35
2018-07-26T23:29:58.854Z,54.63
2018-07-26T23:30:58.839Z,54.93
2018-07-26T23:31:58.826Z,55.11
2018-07-26T23:32:58.812Z,55.11
2018-07-26T23:33:58.801Z,55.77
2018-07-26T23:34:58.782Z,55.57
2018-07-26T23:35:58.770Z,55.87
2018-07-26T23:36:58.753Z,55.57
2018-07-26T23:37:58.740Z,55.89
2018-07-26T23:38:58.725Z,55.29
2018-07-26T23:39:58.711Z,55.96
2018-07-26T23:40:58.696Z,55.96
2018-07-26T23:41:58.682Z,56.35
2018-07-26T23:42:58.667Z,56.15
2018-07-26T23:43:58.657Z,56.54
2018-07-26T23:44:58.638Z,56.63
2018-07-26T23:45:58.652Z,56.57
2018-07-26T23:46:58.612Z,56.63
2018-07-26T23:47:58.596Z,56.73
2018-07-26T23:48:58.580Z,56.73
2018-07-26T23:49:58.565Z,56.73
2018-07-26T23:50:58.554Z,56.73
2018-07-26T23:51:58.537Z,56.54
2018-07-26T23:52:58.523Z,56.54
2018-07-26T23:53:58.508Z,57.21
2018-07-26T23:54:58.493Z,57.70
2018-07-26T23:55:58.479Z,57.41
2018-07-26T23:56:58.464Z,57.70
2018-07-26T23:57:58.450Z,57.41
2018-07-26T23:58:58.436Z,57.89
2018-07-26T23:59:58.420Z,58.28
